createdAt,value
2022-11-28T00:01:39.845Z,77.56
2022-11-28T00:04:08.868Z,77.34
2022-11-28T00:06:38.263Z,76.76
2022-11-28T00:09:06.941Z,76.95
2022-11-28T00:11:35.015Z,76.47
2022-11-28T00:14:02.800Z,76.15
2022-11-28T00:16:30.609Z,75.86
2022-11-28T00:19:02.271Z,75.46
2022-11-28T00:21:31.170Z,76.21
2022-11-28T00:23:59.922Z,76.48
2022-11-28T00:26:31.544Z,76.13
2022-11-28T00:29:01.937Z,76.33
2022-11-28T00:31:32.745Z,76.01
2022-11-28T00:34:02.841Z,76.42
2022-11-28T00:36:31.835Z,75.99
2022-11-28T00:38:59.631Z,75.75
2022-11-28T00:41:30.282Z,75.72
2022-11-28T00:43:59.315Z,75.53
2022-11-28T00:46:27.953Z,77.07
2022-11-28T00:48:56.028Z,78.56
2022-11-28T00:51:26.901Z,78.40
2022-11-28T00:53:57.478Z,79.22
2022-11-28T00:56:27.051Z,78.69
2022-11-28T00:58:55.169Z,78.52
2022-11-28T01:01:25.193Z,78.17
2022-11-28T01:03:55.561Z,77.60
2022-11-28T01:06:26.994Z,77.65
2022-11-28T01:08:59.143Z,78.60
2022-11-28T01:11:27.118Z,82.05
2022-11-28T01:13:55.287Z,81.90
2022-11-28T01:16:23.890Z,81.06
2022-11-28T01:18:52.380Z,83.70
2022-11-28T01:21:21.148Z,83.46
2022-11-28T01:23:50.658Z,81.99
2022-11-28T01:26:20.925Z,82.11
2022-11-28T01:28:49.533Z,81.58
2022-11-28T01:31:19.797Z,81.07
2022-11-28T01:33:48.249Z,81.03
2022-11-28T01:36:17.232Z,80.33
2022-11-28T01:38:45.555Z,81.28
2022-11-28T01:41:15.812Z,81.72
2022-11-28T01:43:59.844Z,81.22
2022-11-28T01:46:27.806Z,80.79
2022-11-28T01:48:59.436Z,81.22
2022-11-28T01:51:27.732Z,81.41
2022-11-28T01:53:56.595Z,81.69
2022-11-28T01:56:28.397Z,82.54
2022-11-28T01:58:59.525Z,81.49
2022-11-28T02:01:28.078Z,80.80
2022-11-28T02:03:58.256Z,81.80
2022-11-28T02:06:27.046Z,81.73
2022-11-28T02:08:56.447Z,81.17
2022-11-28T02:11:48.672Z,79.55
2022-11-28T02:14:28.923Z,79.67
2022-11-28T02:17:12.592Z,79.85
2022-11-28T02:20:31.109Z,79.19
2022-11-28T02:23:09.954Z,79.28
2022-11-28T02:26:05.975Z,78.87
2022-11-28T02:28:51.749Z,78.41
2022-11-28T02:31:35.762Z,78.27
2022-11-28T02:34:13.339Z,78.21
2022-11-28T02:36:48.410Z,78.25
2022-11-28T02:39:31.234Z,77.45
2022-11-28T02:42:05.241Z,77.61
2022-11-28T02:44:43.978Z,77.55
2022-11-28T02:47:17.147Z,77.95
2022-11-28T02:49:52.811Z,76.98
2022-11-28T02:52:26.268Z,77.39
2022-11-28T02:54:56.651Z,76.97
2022-11-28T02:57:24.499Z,76.96
2022-11-28T02:59:52.556Z,76.80
2022-11-28T03:02:27.578Z,76.57
2022-11-28T03:05:08.693Z,76.74
2022-11-28T03:08:01.886Z,77.34
2022-11-28T03:10:40.152Z,77.84
2022-11-28T03:13:16.696Z,77.95
2022-11-28T03:16:03.367Z,78.28
2022-11-28T03:18:35.142Z,77.47
2022-11-28T03:21:11.668Z,76.94
2022-11-28T03:23:45.224Z,77.22
2022-11-28T03:26:20.069Z,76.72
2022-11-28T03:28:53.167Z,76.76
2022-11-28T03:31:25.591Z,76.50
2022-11-28T03:33:58.178Z,76.47
2022-11-28T03:36:30.411Z,76.13
2022-11-28T03:39:04.399Z,76.60
2022-11-28T03:41:37.055Z,76.12
2022-11-28T03:44:09.312Z,76.89
2022-11-28T03:46:42.086Z,77.05
2022-11-28T03:49:12.325Z,76.25
2022-11-28T03:51:47.643Z,75.95
2022-11-28T03:54:23.556Z,76.68
2022-11-28T03:56:58.357Z,76.39
2022-11-28T03:59:32.158Z,77.04
2022-11-28T04:02:06.697Z,76.95
2022-11-28T04:04:42.424Z,76.66
2022-11-28T04:07:22.433Z,76.48
2022-11-28T04:09:54.402Z,77.07
2022-11-28T04:12:32.004Z,76.38
2022-11-28T04:15:04.936Z,76.39
2022-11-28T04:17:36.277Z,76.49
2022-11-28T04:20:10.076Z,77.69
2022-11-28T04:22:45.427Z,76.96
2022-11-28T04:25:17.318Z,77.48
2022-11-28T04:27:50.100Z,77.41
2022-11-28T04:30:18.163Z,77.68
2022-11-28T04:32:50.498Z,77.63
2022-11-28T04:35:24.686Z,78.57
2022-11-28T04:37:55.784Z,78.04
2022-11-28T04:40:24.904Z,77.89
2022-11-28T04:42:57.601Z,77.27
2022-11-28T04:45:30.112Z,77.85
2022-11-28T04:47:58.546Z,78.19
2022-11-28T04:50:31.708Z,78.67
2022-11-28T04:53:09.554Z,77.74
2022-11-28T04:55:46.261Z,77.11
2022-11-28T04:58:20.463Z,77.07
2022-11-28T05:00:51.738Z,78.48
2022-11-28T05:03:19.727Z,77.70
2022-11-28T05:05:50.247Z,77.63
2022-11-28T05:08:20.250Z,78.10
2022-11-28T05:10:48.340Z,78.42
2022-11-28T05:13:16.877Z,78.26
2022-11-28T05:15:44.809Z,78.14
2022-11-28T05:18:12.760Z,78.03
2022-11-28T05:20:41.134Z,77.95
2022-11-28T05:23:08.923Z,77.76
2022-11-28T05:25:40.107Z,77.92
2022-11-28T05:28:09.058Z,77.58
2022-11-28T05:30:36.848Z,77.59
2022-11-28T05:33:04.693Z,77.42
2022-11-28T05:35:32.496Z,77.23
2022-11-28T05:38:00.366Z,77.23
2022-11-28T05:40:28.133Z,76.80
2022-11-28T05:42:57.317Z,76.95
2022-11-28T05:45:25.303Z,76.86
2022-11-28T05:47:53.100Z,76.88
2022-11-28T05:50:22.921Z,77.25
2022-11-28T05:52:50.816Z,76.75
2022-11-28T05:55:18.848Z,76.85
2022-11-28T05:57:49.008Z,76.92
2022-11-28T06:00:19.388Z,77.05
2022-11-28T06:02:47.526Z,77.64
2022-11-28T06:05:40.999Z,77.72
2022-11-28T06:08:05.909Z,78.33
2022-11-28T06:10:33.764Z,78.46
2022-11-28T06:13:02.905Z,79.10
2022-11-28T06:15:37.548Z,79.54
2022-11-28T06:18:08.286Z,78.97
2022-11-28T06:20:36.460Z,80.99
2022-11-28T06:23:04.245Z,81.43
2022-11-28T06:25:32.019Z,82.86
2022-11-28T06:27:59.825Z,84.92
2022-11-28T06:30:27.693Z,83.50
2022-11-28T06:32:56.905Z,83.36
2022-11-28T06:35:24.830Z,82.88
2022-11-28T06:37:52.685Z,82.84
2022-11-28T06:40:20.645Z,81.73
2022-11-28T06:42:50.391Z,80.80
2022-11-28T06:45:18.331Z,80.18
2022-11-28T06:47:46.145Z,81.45
2022-11-28T06:50:15.328Z,81.88
2022-11-28T06:52:43.117Z,82.59
2022-11-28T06:55:11.172Z,82.32
2022-11-28T06:57:39.306Z,81.17
2022-11-28T07:00:08.807Z,81.08
2022-11-28T07:02:36.691Z,80.40
2022-11-28T07:05:04.770Z,80.28
2022-11-28T07:07:41.762Z,79.77
2022-11-28T07:10:21.020Z,79.47
2022-11-28T07:12:48.882Z,79.28
2022-11-28T07:15:16.732Z,79.29
2022-11-28T07:17:44.516Z,79.54
2022-11-28T07:20:13.095Z,78.69
2022-11-28T07:22:43.045Z,78.74
2022-11-28T07:25:11.273Z,78.40
2022-11-28T07:27:39.059Z,78.33
2022-11-28T07:30:09.861Z,77.99
2022-11-28T07:32:40.360Z,78.08
2022-11-28T07:35:09.297Z,79.56
2022-11-28T07:37:37.600Z,79.10
2022-11-28T07:40:08.395Z,80.02
2022-11-28T07:42:36.718Z,80.58
2022-11-28T07:45:05.229Z,80.98
2022-11-28T07:47:33.115Z,79.73
2022-11-28T07:50:00.842Z,79.09
2022-11-28T07:52:28.805Z,79.05
2022-11-28T07:54:56.750Z,78.30
2022-11-28T07:57:26.009Z,77.54
2022-11-28T07:59:53.780Z,78.26
2022-11-28T08:02:21.782Z,77.87
2022-11-28T08:04:54.948Z,78.22
2022-11-28T08:07:23.305Z,77.51
2022-11-28T08:09:51.284Z,77.40
2022-11-28T08:12:19.091Z,77.49
2022-11-28T08:14:48.309Z,77.53
2022-11-28T08:17:18.460Z,76.89
2022-11-28T08:19:46.263Z,77.26
2022-11-28T08:22:14.317Z,76.93
2022-11-28T08:24:42.528Z,77.00
2022-11-28T08:27:10.532Z,77.09
2022-11-28T08:29:41.079Z,76.23
2022-11-28T08:32:10.573Z,77.21
2022-11-28T08:34:38.416Z,76.61
2022-11-28T08:37:06.238Z,75.91
2022-11-28T08:39:36.129Z,75.89
2022-11-28T08:42:04.020Z,75.53
2022-11-28T08:44:31.904Z,76.15
2022-11-28T08:47:00.477Z,76.90
2022-11-28T08:49:32.636Z,77.18
2022-11-28T08:52:00.540Z,78.59
2022-11-28T08:54:30.667Z,77.99
2022-11-28T08:56:58.942Z,76.76
2022-11-28T08:59:26.775Z,75.89
2022-11-28T09:01:55.030Z,74.92
2022-11-28T09:04:23.824Z,75.42
2022-11-28T09:06:53.602Z,74.53
2022-11-28T09:09:21.822Z,75.70
2022-11-28T09:11:49.702Z,75.19
2022-11-28T09:14:17.493Z,74.99
2022-11-28T09:16:45.354Z,74.72
2022-11-28T09:19:13.191Z,76.08
2022-11-28T09:21:41.654Z,75.44
2022-11-28T09:24:13.926Z,75.50
2022-11-28T09:26:41.905Z,76.39
2022-11-28T09:29:09.754Z,74.87
2022-11-28T09:31:37.617Z,74.96
2022-11-28T09:34:05.484Z,74.08
2022-11-28T09:36:33.908Z,73.58
2022-11-28T09:39:02.439Z,73.29
2022-11-28T09:41:39.869Z,73.88
2022-11-28T09:44:16.316Z,72.92
2022-11-28T09:46:46.283Z,72.89
2022-11-28T09:49:24.151Z,72.46
2022-11-28T09:51:56.489Z,72.15
2022-11-28T09:54:31.308Z,72.43
2022-11-28T09:57:03.165Z,72.05
2022-11-28T09:59:31.963Z,71.45
2022-11-28T10:02:14.451Z,70.97
2022-11-28T10:04:45.111Z,72.80
2022-11-28T10:07:22.034Z,71.72
2022-11-28T10:09:58.192Z,71.56
2022-11-28T10:12:38.689Z,70.34
2022-11-28T10:15:34.435Z,71.97
2022-11-28T10:18:16.059Z,71.62
2022-11-28T10:20:57.029Z,70.45
2022-11-28T10:23:29.863Z,71.66
2022-11-28T10:26:00.152Z,70.99
2022-11-28T10:28:34.114Z,70.83
2022-11-28T10:31:07.012Z,71.46
2022-11-28T10:33:41.170Z,71.37
2022-11-28T10:36:18.118Z,70.75
2022-11-28T10:38:45.981Z,70.38
2022-11-28T10:41:19.571Z,70.31
2022-11-28T10:43:59.343Z,70.65
2022-11-28T10:46:36.319Z,71.51
2022-11-28T10:49:17.668Z,70.54
2022-11-28T10:51:53.465Z,70.24
2022-11-28T10:54:40.141Z,69.68
2022-11-28T10:57:12.124Z,70.41
2022-11-28T10:59:59.755Z,70.69
2022-11-28T11:02:39.231Z,69.76
2022-11-28T11:05:11.160Z,70.22
2022-11-28T11:07:39.364Z,70.22
2022-11-28T11:10:15.961Z,70.07
2022-11-28T11:12:45.097Z,70.24
2022-11-28T11:15:21.399Z,69.51
2022-11-28T11:17:50.967Z,69.92
2022-11-28T11:20:40.170Z,70.64
2022-11-28T11:23:18.432Z,70.43
2022-11-28T11:25:52.295Z,70.28
2022-11-28T11:28:39.063Z,71.15
2022-11-28T11:31:17.817Z,70.56
2022-11-28T11:33:49.989Z,71.07
2022-11-28T11:36:25.394Z,70.62
2022-11-28T11:39:05.236Z,72.08
2022-11-28T11:41:35.480Z,72.83
2022-11-28T11:44:29.295Z,74.38
2022-11-28T11:47:00.723Z,75.10
2022-11-28T11:49:30.321Z,75.94
2022-11-28T11:51:59.682Z,76.06
2022-11-28T11:54:27.660Z,76.60
2022-11-28T11:57:24.952Z,77.44
2022-11-28T11:59:51.579Z,75.68
2022-11-28T12:02:28.928Z,76.18
2022-11-28T12:05:03.058Z,76.98
2022-11-28T12:07:38.187Z,76.33
2022-11-28T12:10:12.152Z,76.43
2022-11-28T12:12:42.532Z,78.29
2022-11-28T12:15:18.360Z,76.94
2022-11-28T12:18:03.755Z,79.11
2022-11-28T12:20:41.458Z,78.84
2022-11-28T12:23:23.523Z,79.78
2022-11-28T12:25:57.802Z,78.30
2022-11-28T12:28:40.684Z,79.01
2022-11-28T12:31:18.030Z,78.64
2022-11-28T12:33:59.998Z,78.73
2022-11-28T12:36:35.071Z,78.03
2022-11-28T12:39:18.858Z,78.83
2022-11-28T12:42:10.123Z,78.74
2022-11-28T12:44:54.043Z,78.06
2022-11-28T12:47:34.727Z,78.66
2022-11-28T12:50:20.120Z,80.79
2022-11-28T12:52:55.437Z,79.59
2022-11-28T12:55:33.335Z,79.11
2022-11-28T12:58:08.915Z,78.70
2022-11-28T13:00:47.745Z,79.17
2022-11-28T13:03:35.444Z,78.90
2022-11-28T13:06:16.384Z,78.99
2022-11-28T13:08:56.371Z,78.59
2022-11-28T13:11:40.093Z,79.36
2022-11-28T13:14:16.547Z,79.89
2022-11-28T13:16:47.928Z,80.37
2022-11-28T13:19:28.592Z,79.05
2022-11-28T13:22:08.878Z,79.94
2022-11-28T13:24:44.205Z,80.04
2022-11-28T13:27:22.039Z,79.57
2022-11-28T13:29:58.890Z,79.57
2022-11-28T13:32:33.867Z,79.69
2022-11-28T13:35:02.267Z,79.59
2022-11-28T13:40:36.184Z,82.82
2022-11-28T13:43:08.913Z,81.62
2022-11-28T13:45:39.625Z,81.32
2022-11-28T13:51:34.086Z,84.37
2022-11-28T13:54:48.832Z,84.98
2022-11-28T13:57:37.407Z,86.56
2022-11-28T14:00:23.423Z,87.27
2022-11-28T14:02:55.095Z,88.04
2022-11-28T14:05:30.076Z,90.51
2022-11-28T14:07:59.068Z,91.33
2022-11-28T14:10:40.014Z,93.13
2022-11-28T14:13:44.854Z,93.95
2022-11-28T14:16:31.771Z,94.51
2022-11-28T14:19:19.253Z,94.33
2022-11-28T14:21:59.027Z,93.11
2022-11-28T14:24:41.148Z,92.97
2022-11-28T14:27:18.221Z,93.15
2022-11-28T14:29:50.733Z,93.24
2022-11-28T14:32:35.435Z,93.15
2022-11-28T14:35:06.875Z,94.09
2022-11-28T14:37:57.780Z,93.84
2022-11-28T14:41:05.392Z,93.39
2022-11-28T14:43:35.771Z,91.80
2022-11-28T14:46:58.383Z,90.47
2022-11-28T14:49:28.016Z,89.91
2022-11-28T14:52:41.775Z,89.39
2022-11-28T14:55:21.831Z,88.02
2022-11-28T14:57:57.011Z,87.28
2022-11-28T15:00:26.725Z,87.25
2022-11-28T15:03:17.439Z,87.92
2022-11-28T15:05:49.830Z,87.73
2022-11-28T15:08:45.530Z,87.88
2022-11-28T15:11:34.538Z,87.78
2022-11-28T15:14:23.267Z,89.10
2022-11-28T15:16:56.126Z,88.40
2022-11-28T15:19:27.675Z,89.32
2022-11-28T15:21:57.734Z,89.22
2022-11-28T15:24:29.761Z,89.85
2022-11-28T15:26:59.821Z,90.01
2022-11-28T15:29:29.530Z,90.91
2022-11-28T15:32:01.093Z,92.07
2022-11-28T15:34:31.358Z,91.28
2022-11-28T15:37:02.609Z,90.40
2022-11-28T15:39:36.001Z,89.69
2022-11-28T15:42:05.969Z,91.70
2022-11-28T15:44:34.186Z,94.11
2022-11-28T15:47:05.270Z,93.07
2022-11-28T15:49:40.814Z,92.78
2022-11-28T15:52:18.790Z,95.80
2022-11-28T15:54:51.490Z,95.01
2022-11-28T15:57:20.873Z,93.58
2022-11-28T15:59:48.901Z,92.84
2022-11-28T16:02:22.986Z,92.47
2022-11-28T16:04:54.349Z,91.80
2022-11-28T16:07:26.321Z,91.68
2022-11-28T16:09:59.432Z,92.60
2022-11-28T16:12:29.423Z,92.87
2022-11-28T16:15:01.920Z,93.44
2022-11-28T16:17:32.701Z,93.36
2022-11-28T16:20:04.557Z,92.62
2022-11-28T16:22:38.148Z,92.38
2022-11-28T16:25:15.632Z,93.43
2022-11-28T16:27:45.631Z,94.16
2022-11-28T16:30:27.552Z,93.18
2022-11-28T16:32:58.189Z,93.77
2022-11-28T16:35:28.862Z,93.87
2022-11-28T16:38:07.010Z,93.09
2022-11-28T16:40:37.254Z,92.79
2022-11-28T16:43:10.243Z,92.17
2022-11-28T16:45:38.416Z,92.95
2022-11-28T16:48:10.013Z,95.82
2022-11-28T16:50:38.720Z,95.41
2022-11-28T16:53:07.945Z,94.73
2022-11-28T16:55:46.543Z,96.25
2022-11-28T16:58:23.688Z,97.26
2022-11-28T17:01:01.349Z,96.42
2022-11-28T17:03:48.194Z,95.82
2022-11-28T17:06:25.403Z,96.28
2022-11-28T17:08:54.711Z,95.35
2022-11-28T17:11:25.784Z,94.49
2022-11-28T17:13:57.229Z,94.21
2022-11-28T17:16:27.419Z,94.02
2022-11-28T17:18:55.589Z,92.88
2022-11-28T17:21:34.572Z,93.23
2022-11-28T17:24:08.729Z,95.96
2022-11-28T17:26:36.895Z,95.97
2022-11-28T17:29:30.836Z,94.96
2022-11-28T17:31:59.428Z,95.22
2022-11-28T17:34:29.631Z,95.60
2022-11-28T17:37:05.164Z,94.94
2022-11-28T17:39:36.618Z,96.53
2022-11-28T17:42:06.525Z,97.77
2022-11-28T17:44:37.821Z,97.14
2022-11-28T17:47:08.550Z,96.47
2022-11-28T17:49:44.694Z,97.16
2022-11-28T17:52:17.248Z,96.72
2022-11-28T17:54:49.262Z,97.71
2022-11-28T17:57:17.175Z,98.25
2022-11-28T17:59:48.127Z,96.97
2022-11-28T18:02:16.466Z,96.50
2022-11-28T18:04:44.709Z,95.59
2022-11-28T18:07:13.564Z,94.62
2022-11-28T18:09:46.263Z,94.80
2022-11-28T18:12:14.712Z,95.52
2022-11-28T18:14:43.485Z,96.20
2022-11-28T18:17:14.211Z,96.34
2022-11-28T18:19:42.655Z,96.56
2022-11-28T18:22:10.919Z,96.18
2022-11-28T18:24:39.249Z,95.44
2022-11-28T18:27:08.391Z,94.70
2022-11-28T18:29:36.311Z,94.71
2022-11-28T18:32:04.765Z,94.44
2022-11-28T18:34:35.615Z,94.21
2022-11-28T18:37:06.232Z,93.82
2022-11-28T18:39:34.885Z,93.65
2022-11-28T18:42:03.196Z,94.38
2022-11-28T18:44:32.610Z,94.53
2022-11-28T18:47:00.734Z,94.13
2022-11-28T18:49:28.513Z,94.62
2022-11-28T18:51:58.046Z,94.41
2022-11-28T18:54:26.010Z,94.39
2022-11-28T18:57:01.072Z,94.85
2022-11-28T18:59:29.284Z,95.82
2022-11-28T19:01:59.627Z,95.80
2022-11-28T19:04:27.550Z,96.50
2022-11-28T19:06:57.552Z,98.16
2022-11-28T19:09:26.187Z,97.53
2022-11-28T19:11:56.112Z,96.63
2022-11-28T19:14:25.150Z,96.04
2022-11-28T19:16:54.091Z,95.88
2022-11-28T19:19:23.730Z,95.55
2022-11-28T19:21:52.178Z,95.13
2022-11-28T19:24:20.164Z,95.06
2022-11-28T19:26:48.388Z,94.32
2022-11-28T19:29:16.308Z,97.26
2022-11-28T19:31:44.218Z,98.19
2022-11-28T19:34:13.905Z,98.96
2022-11-28T19:36:45.313Z,98.37
2022-11-28T19:39:16.840Z,97.10
2022-11-28T19:41:45.242Z,97.31
2022-11-28T19:44:15.850Z,97.06
2022-11-28T19:46:44.554Z,96.01
2022-11-28T19:49:19.396Z,96.17
2022-11-28T19:51:49.052Z,96.54
2022-11-28T19:54:19.551Z,96.01
2022-11-28T19:56:47.726Z,95.63
2022-11-28T19:59:16.124Z,95.07
2022-11-28T20:01:44.623Z,95.79
2022-11-28T20:04:14.127Z,95.98
2022-11-28T20:06:42.174Z,96.11
2022-11-28T20:09:13.802Z,95.47
2022-11-28T20:11:43.879Z,95.35
2022-11-28T20:14:14.017Z,94.87
2022-11-28T20:16:42.008Z,95.01
2022-11-28T20:19:12.408Z,95.52
2022-11-28T20:21:40.359Z,95.22
2022-11-28T20:24:09.654Z,95.46
2022-11-28T20:26:41.597Z,96.07
2022-11-28T20:29:13.802Z,96.16
2022-11-28T20:31:45.310Z,95.87
2022-11-28T20:34:17.391Z,95.57
2022-11-28T20:36:46.247Z,95.27
2022-11-28T20:39:14.305Z,95.42
2022-11-28T20:41:43.464Z,95.68
2022-11-28T20:44:11.320Z,96.15
2022-11-28T20:46:39.889Z,96.94
2022-11-28T20:49:08.360Z,97.52
2022-11-28T20:51:37.355Z,98.58
2022-11-28T20:54:06.477Z,99.10
2022-11-28T20:56:57.836Z,100.00
2022-11-28T20:59:25.226Z,100.00
2022-11-28T21:01:53.178Z,100.00
2022-11-28T21:04:21.111Z,100.00
2022-11-28T21:06:49.538Z,100.00
2022-11-28T21:09:19.960Z,100.00
2022-11-28T21:11:58.233Z,100.00
2022-11-28T21:14:28.968Z,100.00
2022-11-28T21:16:57.987Z,100.00
2022-11-28T21:19:26.000Z,100.00
2022-11-28T21:21:54.004Z,100.00
2022-11-28T21:24:21.889Z,100.00
2022-11-28T21:26:54.014Z,100.00
2022-11-28T21:29:24.346Z,100.00
2022-11-28T21:31:55.979Z,100.00
2022-11-28T21:34:23.868Z,100.00
2022-11-28T21:36:51.697Z,100.00
2022-11-28T21:39:21.916Z,100.00
2022-11-28T21:41:51.007Z,100.00
2022-11-28T21:44:18.950Z,100.00
2022-11-28T21:46:46.912Z,99.65
2022-11-28T21:49:17.010Z,99.59
2022-11-28T21:51:44.953Z,99.44
2022-11-28T21:54:13.772Z,100.00
2022-11-28T21:56:41.923Z,99.91
2022-11-28T21:59:10.133Z,99.58
2022-11-28T22:01:41.296Z,99.27
2022-11-28T22:04:11.941Z,99.05
2022-11-28T22:06:41.757Z,99.18
2022-11-28T22:11:55.834Z,98.97
2022-11-28T22:14:23.600Z,98.44
2022-11-28T22:16:51.448Z,98.42
2022-11-28T22:19:21.420Z,98.77
2022-11-28T22:21:53.267Z,99.04
2022-11-28T22:24:24.543Z,98.93
2022-11-28T22:26:52.570Z,98.03
2022-11-28T22:29:20.408Z,97.37
2022-11-28T22:31:49.672Z,97.51
2022-11-28T22:34:18.475Z,97.34
2022-11-28T22:36:46.287Z,97.39
2022-11-28T22:39:15.446Z,97.20
2022-11-28T22:41:43.673Z,97.41
2022-11-28T22:44:12.620Z,97.16
2022-11-28T22:46:40.547Z,96.54
2022-11-28T22:49:11.492Z,97.16
2022-11-28T22:51:40.695Z,97.35
2022-11-28T22:54:11.120Z,97.13
2022-11-28T22:56:41.124Z,97.29
2022-11-28T22:59:13.324Z,97.66
2022-11-28T23:01:43.383Z,97.77
2022-11-28T23:04:11.706Z,97.60
2022-11-28T23:06:40.457Z,97.32
2022-11-28T23:09:10.542Z,97.37
2022-11-28T23:16:30.963Z,97.02
2022-11-28T23:19:00.567Z,97.53
2022-11-28T23:21:31.696Z,97.67
2022-11-28T23:23:59.795Z,97.85
2022-11-28T23:26:30.734Z,98.02
2022-11-28T23:29:01.388Z,97.83
2022-11-28T23:31:32.408Z,98.33
2022-11-28T23:34:01.757Z,98.01
2022-11-28T23:36:31.884Z,97.93
2022-11-28T23:39:03.996Z,97.79
2022-11-28T23:41:32.631Z,97.49
2022-11-28T23:44:01.166Z,97.44
2022-11-28T23:46:30.466Z,97.46
2022-11-28T23:48:58.319Z,97.53
2022-11-28T23:51:27.042Z,97.13
2022-11-28T23:53:55.424Z,97.25
2022-11-28T23:56:25.180Z,96.65
2022-11-28T23:58:54.141Z,97.66
